sensor_id;sensor_type;location;lat;lon;timestamp;P1;durP1;ratioP1;P2;durP2;ratioP2
15230;SDS011;32569;51.762;8.564;2023-11-19T00:00:25;0.70;;;0.70;;
15230;SDS011;32569;51.762;8.564;2023-11-19T00:02:54;0.60;;;0.60;;
15230;SDS011;32569;51.762;8.564;2023-11-19T00:05:20;0.80;;;0.80;;
15230;SDS011;32569;51.762;8.564;2023-11-19T00:07:47;0.70;;;0.70;;
15230;SDS011;32569;51.762;8.564;2023-11-19T00:10:15;0.80;;;0.80;;
15230;SDS011;32569;51.762;8.564;2023-11-19T00:12:44;0.80;;;0.80;;
15230;SDS011;32569;51.762;8.564;2023-11-19T00:15:12;0.60;;;0.60;;
15230;SDS011;32569;51.762;8.564;2023-11-19T00:17:39;0.50;;;0.50;;
15230;SDS011;32569;51.762;8.564;2023-11-19T00:20:11;0.60;;;0.60;;
15230;SDS011;32569;51.762;8.564;2023-11-19T00:22:38;0.97;;;0.80;;
15230;SDS011;32569;51.762;8.564;2023-11-19T00:25:07;0.73;;;0.73;;
15230;SDS011;32569;51.762;8.564;2023-11-19T00:27:34;0.70;;;0.70;;
15230;SDS011;32569;51.762;8.564;2023-11-19T00:30:01;0.70;;;0.70;;
15230;SDS011;32569;51.762;8.564;2023-11-19T00:32:30;0.70;;;0.70;;
15230;SDS011;32569;51.762;8.564;2023-11-19T00:34:57;1.33;;;0.97;;
15230;SDS011;32569;51.762;8.564;2023-11-19T00:37:25;0.50;;;0.50;;
15230;SDS011;32569;51.762;8.564;2023-11-19T00:39:51;0.70;;;0.70;;
15230;SDS011;32569;51.762;8.564;2023-11-19T00:42:18;0.83;;;0.83;;
15230;SDS011;32569;51.762;8.564;2023-11-19T00:44:45;0.60;;;0.60;;
15230;SDS011;32569;51.762;8.564;2023-11-19T00:47:12;0.60;;;0.60;;
15230;SDS011;32569;51.762;8.564;2023-11-19T00:49:38;0.60;;;0.60;;
15230;SDS011;32569;51.762;8.564;2023-11-19T00:52:05;0.70;;;0.70;;
15230;SDS011;32569;51.762;8.564;2023-11-19T00:54:33;0.70;;;0.70;;
15230;SDS011;32569;51.762;8.564;2023-11-19T00:57:00;0.60;;;0.60;;
15230;SDS011;32569;51.762;8.564;2023-11-19T00:59:27;0.57;;;0.57;;
15230;SDS011;32569;51.762;8.564;2023-11-19T01:01:54;0.63;;;0.63;;
15230;SDS011;32569;51.762;8.564;2023-11-19T01:04:21;0.53;;;0.53;;
15230;SDS011;32569;51.762;8.564;2023-11-19T01:06:49;0.60;;;0.60;;
15230;SDS011;32569;51.762;8.564;2023-11-19T01:09:18;0.60;;;0.60;;
15230;SDS011;32569;51.762;8.564;2023-11-19T01:11:46;0.70;;;0.70;;
15230;SDS011;32569;51.762;8.564;2023-11-19T01:14:13;0.60;;;0.60;;
15230;SDS011;32569;51.762;8.564;2023-11-19T01:16:40;0.80;;;0.80;;
15230;SDS011;32569;51.762;8.564;2023-11-19T01:19:07;0.63;;;0.63;;
15230;SDS011;32569;51.762;8.564;2023-11-19T01:21:34;0.60;;;0.60;;
15230;SDS011;32569;51.762;8.564;2023-11-19T01:24:01;0.63;;;0.63;;
15230;SDS011;32569;51.762;8.564;2023-11-19T01:26:29;0.60;;;0.60;;
15230;SDS011;32569;51.762;8.564;2023-11-19T01:28:57;0.80;;;0.80;;
15230;SDS011;32569;51.762;8.564;2023-11-19T01:31:23;0.60;;;0.60;;
15230;SDS011;32569;51.762;8.564;2023-11-19T01:33:50;0.80;;;0.80;;
15230;SDS011;32569;51.762;8.564;2023-11-19T01:36:20;0.80;;;0.80;;
15230;SDS011;32569;51.762;8.564;2023-11-19T01:38:47;0.70;;;0.70;;
15230;SDS011;32569;51.762;8.564;2023-11-19T01:41:13;0.60;;;0.60;;
15230;SDS011;32569;51.762;8.564;2023-11-19T01:43:40;0.70;;;0.70;;
15230;SDS011;32569;51.762;8.564;2023-11-19T01:46:09;0.83;;;0.83;;
15230;SDS011;32569;51.762;8.564;2023-11-19T01:48:36;0.77;;;0.77;;
15230;SDS011;32569;51.762;8.564;2023-11-19T01:51:10;0.60;;;0.60;;
15230;SDS011;32569;51.762;8.564;2023-11-19T01:53:39;0.70;;;0.70;;
15230;SDS011;32569;51.762;8.564;2023-11-19T01:56:07;0.80;;;0.80;;
15230;SDS011;32569;51.762;8.564;2023-11-19T01:58:35;0.70;;;0.70;;
15230;SDS011;32569;51.762;8.564;2023-11-19T02:01:04;0.90;;;0.90;;
15230;SDS011;32569;51.762;8.564;2023-11-19T02:03:35;0.80;;;0.80;;
15230;SDS011;32569;51.762;8.564;2023-11-19T02:06:02;0.83;;;0.83;;
15230;SDS011;32569;51.762;8.564;2023-11-19T02:08:30;0.73;;;0.73;;
15230;SDS011;32569;51.762;8.564;2023-11-19T02:10:57;0.67;;;0.67;;
15230;SDS011;32569;51.762;8.564;2023-11-19T02:13:25;0.97;;;0.97;;
15230;SDS011;32569;51.762;8.564;2023-11-19T02:15:53;0.83;;;0.83;;
15230;SDS011;32569;51.762;8.564;2023-11-19T02:18:21;0.90;;;0.90;;
15230;SDS011;32569;51.762;8.564;2023-11-19T02:20:53;1.10;;;1.00;;
15230;SDS011;32569;51.762;8.564;2023-11-19T02:23:20;0.83;;;0.83;;
15230;SDS011;32569;51.762;8.564;2023-11-19T02:25:51;0.90;;;0.90;;
15230;SDS011;32569;51.762;8.564;2023-11-19T02:28:33;1.10;;;1.10;;
15230;SDS011;32569;51.762;8.564;2023-11-19T02:31:00;1.07;;;1.07;;
15230;SDS011;32569;51.762;8.564;2023-11-19T02:33:26;1.10;;;1.10;;
15230;SDS011;32569;51.762;8.564;2023-11-19T02:35:53;1.10;;;1.10;;
15230;SDS011;32569;51.762;8.564;2023-11-19T02:38:20;1.10;;;1.10;;
15230;SDS011;32569;51.762;8.564;2023-11-19T02:40:46;1.00;;;1.00;;
15230;SDS011;32569;51.762;8.564;2023-11-19T02:43:14;1.20;;;1.20;;
15230;SDS011;32569;51.762;8.564;2023-11-19T02:45:42;1.30;;;1.20;;
15230;SDS011;32569;51.762;8.564;2023-11-19T02:48:19;1.10;;;1.10;;
15230;SDS011;32569;51.762;8.564;2023-11-19T02:50:46;1.53;;;1.43;;
15230;SDS011;32569;51.762;8.564;2023-11-19T02:53:13;1.30;;;1.30;;
15230;SDS011;32569;51.762;8.564;2023-11-19T02:55:41;1.30;;;1.30;;
15230;SDS011;32569;51.762;8.564;2023-11-19T02:58:14;1.53;;;1.47;;
15230;SDS011;32569;51.762;8.564;2023-11-19T03:00:49;1.63;;;1.57;;
15230;SDS011;32569;51.762;8.564;2023-11-19T03:03:22;1.50;;;1.47;;
15230;SDS011;32569;51.762;8.564;2023-11-19T03:05:53;1.60;;;1.50;;
15230;SDS011;32569;51.762;8.564;2023-11-19T03:08:20;1.57;;;1.47;;
15230;SDS011;32569;51.762;8.564;2023-11-19T03:10:47;1.73;;;1.63;;
15230;SDS011;32569;51.762;8.564;2023-11-19T03:13:17;1.60;;;1.50;;
15230;SDS011;32569;51.762;8.564;2023-11-19T03:15:43;1.57;;;1.53;;
15230;SDS011;32569;51.762;8.564;2023-11-19T03:18:14;1.53;;;1.50;;
15230;SDS011;32569;51.762;8.564;2023-11-19T03:20:41;1.80;;;1.70;;
15230;SDS011;32569;51.762;8.564;2023-11-19T03:23:08;1.77;;;1.67;;
15230;SDS011;32569;51.762;8.564;2023-11-19T03:25:35;1.50;;;1.50;;
15230;SDS011;32569;51.762;8.564;2023-11-19T03:28:02;1.43;;;1.43;;
15230;SDS011;32569;51.762;8.564;2023-11-19T03:30:29;1.50;;;1.50;;
15230;SDS011;32569;51.762;8.564;2023-11-19T03:32:57;1.70;;;1.60;;
15230;SDS011;32569;51.762;8.564;2023-11-19T03:35:28;1.37;;;1.30;;
15230;SDS011;32569;51.762;8.564;2023-11-19T03:37:55;1.60;;;1.50;;
15230;SDS011;32569;51.762;8.564;2023-11-19T03:40:22;1.57;;;1.50;;
15230;SDS011;32569;51.762;8.564;2023-11-19T03:42:50;1.57;;;1.47;;
15230;SDS011;32569;51.762;8.564;2023-11-19T03:45:16;1.50;;;1.50;;
15230;SDS011;32569;51.762;8.564;2023-11-19T03:47:43;1.47;;;1.47;;
15230;SDS011;32569;51.762;8.564;2023-11-19T03:50:10;1.60;;;1.50;;
15230;SDS011;32569;51.762;8.564;2023-11-19T03:52:38;1.40;;;1.40;;
15230;SDS011;32569;51.762;8.564;2023-11-19T03:55:05;1.60;;;1.50;;
15230;SDS011;32569;51.762;8.564;2023-11-19T03:57:33;1.77;;;1.67;;
15230;SDS011;32569;51.762;8.564;2023-11-19T04:00:00;1.50;;;1.40;;
15230;SDS011;32569;51.762;8.564;2023-11-19T04:02:32;1.70;;;1.60;;
15230;SDS011;32569;51.762;8.564;2023-11-19T04:05:02;2.13;;;1.67;;
15230;SDS011;32569;51.762;8.564;2023-11-19T04:07:30;2.30;;;1.70;;
15230;SDS011;32569;51.762;8.564;2023-11-19T04:09:58;1.50;;;1.50;;
15230;SDS011;32569;51.762;8.564;2023-11-19T04:12:25;1.40;;;1.40;;
15230;SDS011;32569;51.762;8.564;2023-11-19T04:14:52;1.87;;;1.50;;
15230;SDS011;32569;51.762;8.564;2023-11-19T04:17:18;1.60;;;1.50;;
15230;SDS011;32569;51.762;8.564;2023-11-19T04:19:45;1.50;;;1.40;;
15230;SDS011;32569;51.762;8.564;2023-11-19T04:22:12;1.80;;;1.70;;
15230;SDS011;32569;51.762;8.564;2023-11-19T04:24:39;1.63;;;1.53;;
15230;SDS011;32569;51.762;8.564;2023-11-19T04:27:10;1.60;;;1.50;;
15230;SDS011;32569;51.762;8.564;2023-11-19T04:29:37;1.80;;;1.70;;
15230;SDS011;32569;51.762;8.564;2023-11-19T04:32:04;2.60;;;1.67;;
15230;SDS011;32569;51.762;8.564;2023-11-19T04:34:31;1.60;;;1.50;;
15230;SDS011;32569;51.762;8.564;2023-11-19T04:36:58;3.13;;;1.70;;
15230;SDS011;32569;51.762;8.564;2023-11-19T04:39:27;2.53;;;1.73;;
15230;SDS011;32569;51.762;8.564;2023-11-19T04:41:56;2.20;;;2.00;;
15230;SDS011;32569;51.762;8.564;2023-11-19T04:44:25;4.97;;;2.73;;
15230;SDS011;32569;51.762;8.564;2023-11-19T04:46:52;2.10;;;1.90;;
15230;SDS011;32569;51.762;8.564;2023-11-19T04:49:19;3.30;;;2.97;;
15230;SDS011;32569;51.762;8.564;2023-11-19T04:51:46;2.80;;;2.00;;
15230;SDS011;32569;51.762;8.564;2023-11-19T04:54:13;3.57;;;2.00;;
15230;SDS011;32569;51.762;8.564;2023-11-19T04:56:39;3.40;;;1.80;;
15230;SDS011;32569;51.762;8.564;2023-11-19T04:59:06;2.30;;;2.10;;
15230;SDS011;32569;51.762;8.564;2023-11-19T05:01:35;2.07;;;1.60;;
15230;SDS011;32569;51.762;8.564;2023-11-19T05:04:02;3.07;;;2.00;;
15230;SDS011;32569;51.762;8.564;2023-11-19T05:06:28;2.43;;;2.03;;
15230;SDS011;32569;51.762;8.564;2023-11-19T05:08:56;2.10;;;1.90;;
15230;SDS011;32569;51.762;8.564;2023-11-19T05:11:22;2.60;;;1.87;;
15230;SDS011;32569;51.762;8.564;2023-11-19T05:13:49;4.07;;;1.93;;
15230;SDS011;32569;51.762;8.564;2023-11-19T05:16:16;1.90;;;1.80;;
15230;SDS011;32569;51.762;8.564;2023-11-19T05:18:45;4.20;;;2.07;;
15230;SDS011;32569;51.762;8.564;2023-11-19T05:21:11;2.90;;;2.00;;
15230;SDS011;32569;51.762;8.564;2023-11-19T05:23:38;3.47;;;2.40;;
15230;SDS011;32569;51.762;8.564;2023-11-19T05:26:06;3.10;;;2.20;;
15230;SDS011;32569;51.762;8.564;2023-11-19T05:28:33;3.57;;;2.23;;
15230;SDS011;32569;51.762;8.564;2023-11-19T05:31:00;5.50;;;2.47;;
15230;SDS011;32569;51.762;8.564;2023-11-19T05:33:27;5.37;;;2.20;;
15230;SDS011;32569;51.762;8.564;2023-11-19T05:35:55;5.03;;;2.07;;
15230;SDS011;32569;51.762;8.564;2023-11-19T05:38:22;3.70;;;2.30;;
15230;SDS011;32569;51.762;8.564;2023-11-19T05:40:48;4.03;;;2.63;;
15230;SDS011;32569;51.762;8.564;2023-11-19T05:43:15;4.23;;;2.33;;
15230;SDS011;32569;51.762;8.564;2023-11-19T05:45:42;4.43;;;2.10;;
15230;SDS011;32569;51.762;8.564;2023-11-19T05:48:09;4.07;;;2.37;;
15230;SDS011;32569;51.762;8.564;2023-11-19T05:50:36;4.80;;;2.57;;
15230;SDS011;32569;51.762;8.564;2023-11-19T05:53:04;4.83;;;2.63;;
15230;SDS011;32569;51.762;8.564;2023-11-19T05:55:34;5.60;;;2.70;;
15230;SDS011;32569;51.762;8.564;2023-11-19T05:58:01;2.70;;;2.33;;
15230;SDS011;32569;51.762;8.564;2023-11-19T06:00:29;3.93;;;2.87;;
15230;SDS011;32569;51.762;8.564;2023-11-19T06:02:56;5.60;;;2.33;;
15230;SDS011;32569;51.762;8.564;2023-11-19T06:05:22;3.17;;;2.10;;
15230;SDS011;32569;51.762;8.564;2023-11-19T06:07:49;3.73;;;2.40;;
15230;SDS011;32569;51.762;8.564;2023-11-19T06:10:17;4.83;;;2.40;;
15230;SDS011;32569;51.762;8.564;2023-11-19T06:12:45;5.67;;;2.50;;
15230;SDS011;32569;51.762;8.564;2023-11-19T06:15:12;5.13;;;2.60;;
15230;SDS011;32569;51.762;8.564;2023-11-19T06:17:39;3.33;;;2.30;;
15230;SDS011;32569;51.762;8.564;2023-11-19T06:20:06;3.70;;;2.43;;
15230;SDS011;32569;51.762;8.564;2023-11-19T06:22:33;5.57;;;2.43;;
15230;SDS011;32569;51.762;8.564;2023-11-19T06:25:01;3.87;;;2.40;;
15230;SDS011;32569;51.762;8.564;2023-11-19T06:27:33;5.17;;;2.73;;
15230;SDS011;32569;51.762;8.564;2023-11-19T06:30:00;5.77;;;2.83;;
15230;SDS011;32569;51.762;8.564;2023-11-19T06:32:28;4.90;;;2.47;;
15230;SDS011;32569;51.762;8.564;2023-11-19T06:34:55;4.90;;;2.77;;
15230;SDS011;32569;51.762;8.564;2023-11-19T06:37:22;4.60;;;3.00;;
15230;SDS011;32569;51.762;8.564;2023-11-19T06:39:48;5.40;;;2.80;;
15230;SDS011;32569;51.762;8.564;2023-11-19T06:42:15;6.10;;;3.20;;
15230;SDS011;32569;51.762;8.564;2023-11-19T06:44:43;5.33;;;2.90;;
15230;SDS011;32569;51.762;8.564;2023-11-19T06:47:10;5.30;;;2.57;;
15230;SDS011;32569;51.762;8.564;2023-11-19T06:49:37;6.87;;;3.33;;
15230;SDS011;32569;51.762;8.564;2023-11-19T06:52:04;6.60;;;3.07;;
15230;SDS011;32569;51.762;8.564;2023-11-19T06:54:31;2.87;;;2.50;;
15230;SDS011;32569;51.762;8.564;2023-11-19T06:56:58;4.30;;;2.47;;
15230;SDS011;32569;51.762;8.564;2023-11-19T06:59:24;4.33;;;2.67;;
15230;SDS011;32569;51.762;8.564;2023-11-19T07:01:52;5.93;;;2.33;;
15230;SDS011;32569;51.762;8.564;2023-11-19T07:04:19;6.90;;;3.00;;
15230;SDS011;32569;51.762;8.564;2023-11-19T07:06:46;5.07;;;2.43;;
15230;SDS011;32569;51.762;8.564;2023-11-19T07:09:13;4.10;;;2.50;;
15230;SDS011;32569;51.762;8.564;2023-11-19T07:11:40;4.80;;;2.87;;
15230;SDS011;32569;51.762;8.564;2023-11-19T07:14:07;6.27;;;3.10;;
15230;SDS011;32569;51.762;8.564;2023-11-19T07:16:34;7.93;;;2.90;;
15230;SDS011;32569;51.762;8.564;2023-11-19T07:19:04;6.37;;;3.07;;
15230;SDS011;32569;51.762;8.564;2023-11-19T07:21:31;4.83;;;2.50;;
15230;SDS011;32569;51.762;8.564;2023-11-19T07:24:02;6.67;;;3.07;;
15230;SDS011;32569;51.762;8.564;2023-11-19T07:26:28;6.80;;;2.60;;
15230;SDS011;32569;51.762;8.564;2023-11-19T07:28:58;4.53;;;2.50;;
15230;SDS011;32569;51.762;8.564;2023-11-19T07:31:25;6.93;;;3.37;;
15230;SDS011;32569;51.762;8.564;2023-11-19T07:33:52;6.90;;;3.00;;
15230;SDS011;32569;51.762;8.564;2023-11-19T07:36:21;5.73;;;2.73;;
15230;SDS011;32569;51.762;8.564;2023-11-19T07:38:47;5.23;;;2.73;;
15230;SDS011;32569;51.762;8.564;2023-11-19T07:41:15;7.00;;;2.73;;
15230;SDS011;32569;51.762;8.564;2023-11-19T07:43:43;4.47;;;2.67;;
15230;SDS011;32569;51.762;8.564;2023-11-19T07:46:11;5.57;;;3.07;;
15230;SDS011;32569;51.762;8.564;2023-11-19T07:48:38;5.77;;;2.63;;
15230;SDS011;32569;51.762;8.564;2023-11-19T07:51:05;4.93;;;2.13;;
15230;SDS011;32569;51.762;8.564;2023-11-19T07:53:33;3.23;;;2.40;;
15230;SDS011;32569;51.762;8.564;2023-11-19T07:56:02;5.30;;;2.80;;
15230;SDS011;32569;51.762;8.564;2023-11-19T07:58:30;3.63;;;2.20;;
15230;SDS011;32569;51.762;8.564;2023-11-19T08:00:57;4.27;;;2.30;;
15230;SDS011;32569;51.762;8.564;2023-11-19T08:03:23;7.70;;;2.80;;
15230;SDS011;32569;51.762;8.564;2023-11-19T08:05:50;5.37;;;2.80;;
15230;SDS011;32569;51.762;8.564;2023-11-19T08:08:17;5.67;;;3.07;;
15230;SDS011;32569;51.762;8.564;2023-11-19T08:10:45;6.00;;;3.03;;
15230;SDS011;32569;51.762;8.564;2023-11-19T08:13:13;4.87;;;2.80;;
15230;SDS011;32569;51.762;8.564;2023-11-19T08:15:40;3.23;;;2.20;;
15230;SDS011;32569;51.762;8.564;2023-11-19T08:18:07;5.77;;;2.77;;
15230;SDS011;32569;51.762;8.564;2023-11-19T08:20:34;4.40;;;2.30;;
15230;SDS011;32569;51.762;8.564;2023-11-19T08:23:01;3.93;;;2.50;;
15230;SDS011;32569;51.762;8.564;2023-11-19T08:25:28;6.50;;;3.20;;
15230;SDS011;32569;51.762;8.564;2023-11-19T08:27:56;6.23;;;3.00;;
15230;SDS011;32569;51.762;8.564;2023-11-19T08:30:23;4.37;;;2.50;;
15230;SDS011;32569;51.762;8.564;2023-11-19T08:32:49;4.90;;;2.97;;
15230;SDS011;32569;51.762;8.564;2023-11-19T08:35:16;5.50;;;2.57;;
15230;SDS011;32569;51.762;8.564;2023-11-19T08:37:43;4.23;;;3.30;;
15230;SDS011;32569;51.762;8.564;2023-11-19T08:40:11;5.37;;;3.27;;
15230;SDS011;32569;51.762;8.564;2023-11-19T08:42:39;5.13;;;3.30;;
15230;SDS011;32569;51.762;8.564;2023-11-19T08:45:08;5.70;;;2.60;;
15230;SDS011;32569;51.762;8.564;2023-11-19T08:47:35;3.67;;;2.67;;
15230;SDS011;32569;51.762;8.564;2023-11-19T08:50:02;5.80;;;3.10;;
15230;SDS011;32569;51.762;8.564;2023-11-19T08:52:29;4.83;;;2.43;;
15230;SDS011;32569;51.762;8.564;2023-11-19T08:54:56;3.53;;;2.33;;
15230;SDS011;32569;51.762;8.564;2023-11-19T08:57:23;5.13;;;2.67;;
15230;SDS011;32569;51.762;8.564;2023-11-19T08:59:49;4.37;;;3.37;;
15230;SDS011;32569;51.762;8.564;2023-11-19T09:02:17;7.23;;;2.73;;
15230;SDS011;32569;51.762;8.564;2023-11-19T09:04:44;4.83;;;2.70;;
15230;SDS011;32569;51.762;8.564;2023-11-19T09:07:11;8.00;;;2.73;;
15230;SDS011;32569;51.762;8.564;2023-11-19T09:09:37;5.07;;;3.33;;
15230;SDS011;32569;51.762;8.564;2023-11-19T09:12:05;4.93;;;2.40;;
15230;SDS011;32569;51.762;8.564;2023-11-19T09:14:32;4.53;;;2.50;;
15230;SDS011;32569;51.762;8.564;2023-11-19T09:16:59;4.30;;;2.83;;
15230;SDS011;32569;51.762;8.564;2023-11-19T09:19:27;4.00;;;2.63;;
15230;SDS011;32569;51.762;8.564;2023-11-19T09:21:54;5.43;;;2.47;;
15230;SDS011;32569;51.762;8.564;2023-11-19T09:24:20;5.03;;;2.60;;
15230;SDS011;32569;51.762;8.564;2023-11-19T09:26:47;4.90;;;3.00;;
15230;SDS011;32569;51.762;8.564;2023-11-19T09:29:14;4.50;;;2.83;;
15230;SDS011;32569;51.762;8.564;2023-11-19T09:31:41;5.40;;;3.13;;
15230;SDS011;32569;51.762;8.564;2023-11-19T09:34:08;4.77;;;2.93;;
15230;SDS011;32569;51.762;8.564;2023-11-19T09:36:36;4.23;;;2.80;;
15230;SDS011;32569;51.762;8.564;2023-11-19T09:39:02;5.40;;;2.70;;
15230;SDS011;32569;51.762;8.564;2023-11-19T09:41:33;4.07;;;2.60;;
15230;SDS011;32569;51.762;8.564;2023-11-19T09:44:06;5.57;;;2.80;;
15230;SDS011;32569;51.762;8.564;2023-11-19T09:46:33;5.13;;;2.90;;
15230;SDS011;32569;51.762;8.564;2023-11-19T09:49:00;6.30;;;3.03;;
15230;SDS011;32569;51.762;8.564;2023-11-19T09:51:32;6.47;;;3.00;;
15230;SDS011;32569;51.762;8.564;2023-11-19T09:54:00;5.63;;;2.43;;
15230;SDS011;32569;51.762;8.564;2023-11-19T09:56:27;5.90;;;3.03;;
15230;SDS011;32569;51.762;8.564;2023-11-19T09:58:55;3.87;;;3.27;;
15230;SDS011;32569;51.762;8.564;2023-11-19T10:01:22;4.80;;;2.87;;
15230;SDS011;32569;51.762;8.564;2023-11-19T10:03:49;3.97;;;2.60;;
15230;SDS011;32569;51.762;8.564;2023-11-19T10:06:18;6.53;;;2.53;;
15230;SDS011;32569;51.762;8.564;2023-11-19T10:08:45;5.33;;;2.77;;
15230;SDS011;32569;51.762;8.564;2023-11-19T10:11:16;5.07;;;2.57;;
15230;SDS011;32569;51.762;8.564;2023-11-19T10:13:43;6.43;;;2.43;;
15230;SDS011;32569;51.762;8.564;2023-11-19T10:16:12;5.60;;;3.10;;
15230;SDS011;32569;51.762;8.564;2023-11-19T10:18:42;6.47;;;3.00;;
15230;SDS011;32569;51.762;8.564;2023-11-19T10:21:11;6.30;;;2.67;;
15230;SDS011;32569;51.762;8.564;2023-11-19T10:23:51;7.03;;;3.00;;
15230;SDS011;32569;51.762;8.564;2023-11-19T10:26:20;5.13;;;2.83;;
15230;SDS011;32569;51.762;8.564;2023-11-19T10:28:47;4.80;;;2.50;;
15230;SDS011;32569;51.762;8.564;2023-11-19T10:31:14;5.83;;;2.87;;
15230;SDS011;32569;51.762;8.564;2023-11-19T10:33:42;6.30;;;3.83;;
15230;SDS011;32569;51.762;8.564;2023-11-19T10:36:10;4.10;;;2.60;;
15230;SDS011;32569;51.762;8.564;2023-11-19T10:38:38;5.90;;;3.50;;
15230;SDS011;32569;51.762;8.564;2023-11-19T10:41:05;6.17;;;3.00;;
15230;SDS011;32569;51.762;8.564;2023-11-19T10:43:42;6.47;;;2.87;;
15230;SDS011;32569;51.762;8.564;2023-11-19T10:46:09;4.53;;;2.70;;
15230;SDS011;32569;51.762;8.564;2023-11-19T10:48:37;5.70;;;2.60;;
15230;SDS011;32569;51.762;8.564;2023-11-19T10:51:05;4.37;;;2.63;;
15230;SDS011;32569;51.762;8.564;2023-11-19T10:53:33;5.53;;;2.43;;
15230;SDS011;32569;51.762;8.564;2023-11-19T10:56:02;5.57;;;2.50;;
15230;SDS011;32569;51.762;8.564;2023-11-19T10:58:34;5.83;;;2.43;;
15230;SDS011;32569;51.762;8.564;2023-11-19T11:01:03;5.03;;;2.63;;
15230;SDS011;32569;51.762;8.564;2023-11-19T11:03:37;4.93;;;2.63;;
15230;SDS011;32569;51.762;8.564;2023-11-19T11:06:06;6.07;;;2.80;;
15230;SDS011;32569;51.762;8.564;2023-11-19T11:08:34;6.40;;;3.10;;
15230;SDS011;32569;51.762;8.564;2023-11-19T11:11:06;5.47;;;2.50;;
15230;SDS011;32569;51.762;8.564;2023-11-19T11:13:36;5.33;;;2.93;;
15230;SDS011;32569;51.762;8.564;2023-11-19T11:16:08;6.77;;;2.50;;
15230;SDS011;32569;51.762;8.564;2023-11-19T11:18:39;6.93;;;2.90;;
15230;SDS011;32569;51.762;8.564;2023-11-19T11:21:07;5.40;;;2.73;;
15230;SDS011;32569;51.762;8.564;2023-11-19T11:23:47;5.43;;;2.57;;
15230;SDS011;32569;51.762;8.564;2023-11-19T11:26:32;3.23;;;2.17;;
15230;SDS011;32569;51.762;8.564;2023-11-19T11:29:13;7.00;;;3.10;;
15230;SDS011;32569;51.762;8.564;2023-11-19T11:31:48;4.10;;;2.27;;
15230;SDS011;32569;51.762;8.564;2023-11-19T11:34:42;5.83;;;2.90;;
15230;SDS011;32569;51.762;8.564;2023-11-19T11:37:30;5.57;;;2.60;;
15230;SDS011;32569;51.762;8.564;2023-11-19T11:39:59;4.13;;;2.73;;
15230;SDS011;32569;51.762;8.564;2023-11-19T11:42:34;7.00;;;2.83;;
15230;SDS011;32569;51.762;8.564;2023-11-19T11:45:03;4.77;;;2.57;;
15230;SDS011;32569;51.762;8.564;2023-11-19T11:50:34;6.97;;;3.17;;
15230;SDS011;32569;51.762;8.564;2023-11-19T11:53:13;5.53;;;2.50;;
15230;SDS011;32569;51.762;8.564;2023-11-19T11:55:52;10.93;;;6.33;;
15230;SDS011;32569;51.762;8.564;2023-11-19T11:58:21;16.50;;;8.57;;
15230;SDS011;32569;51.762;8.564;2023-11-19T12:00:53;31.37;;;19.43;;
15230;SDS011;32569;51.762;8.564;2023-11-19T12:03:20;29.03;;;19.27;;
15230;SDS011;32569;51.762;8.564;2023-11-19T12:05:47;8.53;;;5.90;;
15230;SDS011;32569;51.762;8.564;2023-11-19T12:08:15;6.60;;;3.20;;
15230;SDS011;32569;51.762;8.564;2023-11-19T12:10:45;6.87;;;4.83;;
15230;SDS011;32569;51.762;8.564;2023-11-19T12:13:13;6.57;;;3.90;;
15230;SDS011;32569;51.762;8.564;2023-11-19T12:18:40;5.87;;;2.93;;
15230;SDS011;32569;51.762;8.564;2023-11-19T12:21:07;5.93;;;3.30;;
15230;SDS011;32569;51.762;8.564;2023-11-19T12:23:35;6.10;;;3.07;;
15230;SDS011;32569;51.762;8.564;2023-11-19T12:26:34;4.83;;;3.03;;
15230;SDS011;32569;51.762;8.564;2023-11-19T12:29:02;7.03;;;3.17;;
15230;SDS011;32569;51.762;8.564;2023-11-19T12:31:34;3.53;;;2.30;;
15230;SDS011;32569;51.762;8.564;2023-11-19T12:34:05;5.40;;;2.67;;
15230;SDS011;32569;51.762;8.564;2023-11-19T12:36:33;4.93;;;2.80;;
15230;SDS011;32569;51.762;8.564;2023-11-19T12:39:00;5.63;;;2.60;;
15230;SDS011;32569;51.762;8.564;2023-11-19T12:41:27;5.40;;;2.10;;
15230;SDS011;32569;51.762;8.564;2023-11-19T12:43:54;3.87;;;2.90;;
15230;SDS011;32569;51.762;8.564;2023-11-19T12:46:35;5.07;;;2.40;;
15230;SDS011;32569;51.762;8.564;2023-11-19T12:49:02;5.30;;;2.47;;
15230;SDS011;32569;51.762;8.564;2023-11-19T12:51:30;5.07;;;2.40;;
15230;SDS011;32569;51.762;8.564;2023-11-19T12:53:57;5.07;;;2.90;;
15230;SDS011;32569;51.762;8.564;2023-11-19T12:56:24;4.97;;;2.40;;
15230;SDS011;32569;51.762;8.564;2023-11-19T12:58:51;3.87;;;2.07;;
15230;SDS011;32569;51.762;8.564;2023-11-19T13:01:18;5.23;;;3.30;;
15230;SDS011;32569;51.762;8.564;2023-11-19T13:03:47;6.57;;;3.47;;
15230;SDS011;32569;51.762;8.564;2023-11-19T13:06:16;4.17;;;2.80;;
15230;SDS011;32569;51.762;8.564;2023-11-19T13:08:46;6.00;;;3.13;;
15230;SDS011;32569;51.762;8.564;2023-11-19T13:11:15;3.70;;;2.17;;
15230;SDS011;32569;51.762;8.564;2023-11-19T13:13:56;3.93;;;2.00;;
15230;SDS011;32569;51.762;8.564;2023-11-19T13:16:29;3.83;;;2.40;;
15230;SDS011;32569;51.762;8.564;2023-11-19T13:18:57;4.87;;;2.53;;
15230;SDS011;32569;51.762;8.564;2023-11-19T13:21:25;3.63;;;2.33;;
15230;SDS011;32569;51.762;8.564;2023-11-19T13:23:52;4.43;;;2.33;;
15230;SDS011;32569;51.762;8.564;2023-11-19T13:26:18;3.80;;;2.40;;
15230;SDS011;32569;51.762;8.564;2023-11-19T13:28:45;4.23;;;2.83;;
15230;SDS011;32569;51.762;8.564;2023-11-19T13:31:12;5.20;;;2.90;;
15230;SDS011;32569;51.762;8.564;2023-11-19T13:33:39;7.10;;;2.83;;
15230;SDS011;32569;51.762;8.564;2023-11-19T13:36:08;5.87;;;2.47;;
15230;SDS011;32569;51.762;8.564;2023-11-19T13:38:35;5.83;;;2.30;;
15230;SDS011;32569;51.762;8.564;2023-11-19T13:41:03;7.40;;;2.90;;
15230;SDS011;32569;51.762;8.564;2023-11-19T13:43:36;7.10;;;3.00;;
15230;SDS011;32569;51.762;8.564;2023-11-19T13:46:03;3.33;;;2.10;;
15230;SDS011;32569;51.762;8.564;2023-11-19T13:48:30;3.93;;;1.97;;
15230;SDS011;32569;51.762;8.564;2023-11-19T13:50:57;5.83;;;2.60;;
15230;SDS011;32569;51.762;8.564;2023-11-19T13:53:26;5.87;;;2.40;;
15230;SDS011;32569;51.762;8.564;2023-11-19T13:55:53;4.83;;;2.43;;
15230;SDS011;32569;51.762;8.564;2023-11-19T13:58:20;5.57;;;2.50;;
15230;SDS011;32569;51.762;8.564;2023-11-19T14:00:47;4.30;;;2.13;;
15230;SDS011;32569;51.762;8.564;2023-11-19T14:03:15;5.60;;;2.47;;
15230;SDS011;32569;51.762;8.564;2023-11-19T14:05:42;5.60;;;2.93;;
15230;SDS011;32569;51.762;8.564;2023-11-19T14:08:10;6.47;;;2.87;;
15230;SDS011;32569;51.762;8.564;2023-11-19T14:10:41;3.83;;;2.10;;
15230;SDS011;32569;51.762;8.564;2023-11-19T14:13:08;5.20;;;2.40;;
15230;SDS011;32569;51.762;8.564;2023-11-19T14:15:36;4.80;;;2.23;;
15230;SDS011;32569;51.762;8.564;2023-11-19T14:18:03;4.40;;;2.57;;
15230;SDS011;32569;51.762;8.564;2023-11-19T14:20:30;3.10;;;1.97;;
15230;SDS011;32569;51.762;8.564;2023-11-19T14:22:58;3.83;;;2.27;;
15230;SDS011;32569;51.762;8.564;2023-11-19T14:25:25;5.20;;;2.37;;
15230;SDS011;32569;51.762;8.564;2023-11-19T14:27:53;4.17;;;2.53;;
15230;SDS011;32569;51.762;8.564;2023-11-19T14:30:20;3.73;;;2.10;;
15230;SDS011;32569;51.762;8.564;2023-11-19T14:32:48;4.23;;;2.00;;
15230;SDS011;32569;51.762;8.564;2023-11-19T14:35:14;3.47;;;1.80;;
15230;SDS011;32569;51.762;8.564;2023-11-19T14:37:41;3.60;;;2.10;;
15230;SDS011;32569;51.762;8.564;2023-11-19T14:40:08;3.67;;;1.80;;
15230;SDS011;32569;51.762;8.564;2023-11-19T14:42:37;3.00;;;2.10;;
15230;SDS011;32569;51.762;8.564;2023-11-19T14:45:06;3.73;;;2.00;;
15230;SDS011;32569;51.762;8.564;2023-11-19T14:47:36;2.67;;;2.20;;
15230;SDS011;32569;51.762;8.564;2023-11-19T14:50:03;3.47;;;2.13;;
15230;SDS011;32569;51.762;8.564;2023-11-19T14:52:31;2.57;;;1.83;;
15230;SDS011;32569;51.762;8.564;2023-11-19T14:54:58;3.53;;;2.07;;
15230;SDS011;32569;51.762;8.564;2023-11-19T14:57:25;2.30;;;1.80;;
15230;SDS011;32569;51.762;8.564;2023-11-19T14:59:52;3.70;;;1.90;;